Time;durP1;ratioP1;P1;durP2;ratioP2;P2;SDS_P1;SDS_P2;PMS_P1;PMS_P2;Temp;Humidity;BMP_temperature;BMP_pressure;BME280_temperature;BME280_humidity;BME280_pressure;Samples;Min_cycle;Max_cycle;Signal;HPM_P1;HPM_P2
2022/06/07 00:01:17;;;;;;;14.52;4.20;;;;;;;;;;5075267;28;20077;-70
2022/06/07 00:03:45;;;;;;;16.13;4.25;;;;;;;;;;5080710;28;20093;-70
2022/06/07 00:06:12;;;;;;;10.52;3.67;;;;;;;;;;5078331;28;20048;-69
2022/06/07 00:08:39;;;;;;;16.58;4.55;;;;;;;;;;5072023;28;20036;-69
2022/06/07 00:11:07;;;;;;;17.63;4.00;;;;;;;;;;5077272;28;20044;-70
2022/06/07 00:13:35;;;;;;;14.23;3.88;;;;;;;;;;5070394;28;20445;-70
2022/06/07 00:16:02;;;;;;;12.05;3.80;;;;;;;;;;5078145;28;20110;-70
2022/06/07 00:18:30;;;;;;;12.65;3.78;;;;;;;;;;5076828;28;20049;-70
2022/06/07 00:20:57;;;;;;;14.93;4.05;;;;;;;;;;5079579;28;20442;-70
2022/06/07 00:23:24;;;;;;;17.27;3.90;;;;;;;;;;5073416;28;20044;-69
2022/06/07 00:25:52;;;;;;;13.57;3.88;;;;;;;;;;5083055;28;20112;-70
2022/06/07 00:28:21;;;;;;;15.60;3.72;;;;;;;;;;5074862;28;20044;-70
2022/06/07 00:30:50;;;;;;;18.90;4.07;;;;;;;;;;5075323;28;20101;-70
2022/06/07 00:33:17;;;;;;;10.57;3.70;;;;;;;;;;5081189;28;20041;-70
2022/06/07 00:35:44;;;;;;;12.45;3.90;;;;;;;;;;5076610;28;20567;-70
2022/06/07 00:38:12;;;;;;;9.18;3.55;;;;;;;;;;5079104;28;20105;-70
2022/06/07 00:40:40;;;;;;;22.05;4.55;;;;;;;;;;5071349;28;20051;-70
2022/06/07 00:43:07;;;;;;;22.40;4.55;;;;;;;;;;5077815;28;20445;-70
2022/06/07 00:45:36;;;;;;;17.75;4.22;;;;;;;;;;5074207;28;20103;-70
2022/06/07 00:48:05;;;;;;;15.50;4.53;;;;;;;;;;5076805;28;20101;-70
2022/06/07 00:50:36;;;;;;;23.65;4.93;;;;;;;;;;5070987;28;20062;-70
2022/06/07 00:53:03;;;;;;;13.95;5.05;;;;;;;;;;5075437;28;20039;-70
2022/06/07 00:55:31;;;;;;;22.00;4.95;;;;;;;;;;5076529;28;20338;-70
2022/06/07 00:57:58;;;;;;;17.48;5.00;;;;;;;;;;5081197;28;20139;-69
2022/06/07 01:00:25;;;;;;;13.65;4.00;;;;;;;;;;5077614;28;20044;-69
2022/06/07 01:02:55;;;;;;;18.98;5.45;;;;;;;;;;5075507;28;20056;-69
2022/06/07 01:05:23;;;;;;;18.85;5.07;;;;;;;;;;5072928;28;20503;-69
2022/06/07 01:10:47;;;;;;;13.43;3.63;;;;;;;;;;5022671;28;20403;-69
2022/06/07 01:13:15;;;;;;;12.10;4.00;;;;;;;;;;5071677;28;20081;-70
2022/06/07 01:15:44;;;;;;;18.45;4.72;;;;;;;;;;5072824;28;20050;-70
2022/06/07 01:18:11;;;;;;;19.05;4.95;;;;;;;;;;5073499;28;20223;-70
2022/06/07 01:20:40;;;;;;;13.13;4.50;;;;;;;;;;5081325;28;20089;-70
2022/06/07 01:23:09;;;;;;;16.60;4.72;;;;;;;;;;5071075;28;20110;-70
2022/06/07 01:25:36;;;;;;;18.88;4.95;;;;;;;;;;5081151;28;20044;-69
2022/06/07 01:28:03;;;;;;;18.05;4.68;;;;;;;;;;5079027;28;20067;-69
2022/06/07 01:30:30;;;;;;;21.23;4.72;;;;;;;;;;5078776;28;20157;-69
2022/06/07 01:32:58;;;;;;;17.77;5.70;;;;;;;;;;5077496;28;20048;-69
2022/06/07 01:35:25;;;;;;;21.45;4.93;;;;;;;;;;5076802;28;20056;-69
2022/06/07 01:37:52;;;;;;;18.55;5.28;;;;;;;;;;5078447;28;20134;-69
2022/06/07 01:43:05;;;;;;;16.88;4.93;;;;;;;;;;5075995;28;20050;-68
2022/06/07 01:45:33;;;;;;;17.73;4.35;;;;;;;;;;5080286;28;20559;-68
2022/06/07 01:48:00;;;;;;;21.92;5.20;;;;;;;;;;5074273;28;20495;-69
2022/06/07 01:50:27;;;;;;;20.05;5.53;;;;;;;;;;5072269;28;20126;-69
2022/06/07 01:52:54;;;;;;;21.13;5.25;;;;;;;;;;5079976;28;20079;-69
2022/06/07 01:55:23;;;;;;;21.05;5.85;;;;;;;;;;5070166;28;20056;-69
2022/06/07 01:57:50;;;;;;;26.15;5.57;;;;;;;;;;5070063;28;20066;-69
2022/06/07 02:00:17;;;;;;;21.60;6.15;;;;;;;;;;5076906;28;20059;-68
2022/06/07 02:02:46;;;;;;;24.08;6.20;;;;;;;;;;5076638;28;20487;-68
2022/06/07 02:05:15;;;;;;;19.95;6.45;;;;;;;;;;5072835;28;20105;-68
2022/06/07 02:07:42;;;;;;;18.75;4.72;;;;;;;;;;5073099;28;21277;-68
2022/06/07 02:10:10;;;;;;;19.63;5.22;;;;;;;;;;5073700;28;20052;-68
2022/06/07 02:12:38;;;;;;;27.20;5.40;;;;;;;;;;5069062;28;20064;-68
2022/06/07 02:15:06;;;;;;;15.05;4.72;;;;;;;;;;5070576;28;20044;-68
2022/06/07 02:17:33;;;;;;;16.85;4.57;;;;;;;;;;5079265;28;20052;-68
2022/06/07 02:20:01;;;;;;;16.40;4.57;;;;;;;;;;5075584;28;20506;-68
2022/06/07 02:22:28;;;;;;;23.10;5.45;;;;;;;;;;5071270;28;20048;-68
2022/06/07 02:24:55;;;;;;;20.08;4.40;;;;;;;;;;5075840;28;20415;-68
2022/06/07 02:27:23;;;;;;;18.27;4.95;;;;;;;;;;5070596;28;20052;-68
2022/06/07 02:29:53;;;;;;;25.35;5.28;;;;;;;;;;5072975;28;20125;-69
2022/06/07 02:32:22;;;;;;;20.92;4.78;;;;;;;;;;5079037;28;20124;-68
2022/06/07 02:34:52;;;;;;;20.65;4.55;;;;;;;;;;5068117;28;20063;-68
2022/06/07 02:37:19;;;;;;;23.75;5.35;;;;;;;;;;5077668;28;20044;-68
2022/06/07 02:39:46;;;;;;;22.52;5.50;;;;;;;;;;5074361;28;20049;-68
2022/06/07 02:42:14;;;;;;;23.98;5.55;;;;;;;;;;5072143;28;20052;-68
2022/06/07 02:44:42;;;;;;;24.30;5.63;;;;;;;;;;5073368;28;20518;-68
2022/06/07 02:47:11;;;;;;;22.05;5.28;;;;;;;;;;5072623;28;20526;-68
2022/06/07 02:49:38;;;;;;;20.65;5.72;;;;;;;;;;5076965;28;20040;-68
2022/06/07 02:52:06;;;;;;;21.52;5.65;;;;;;;;;;5078003;28;20047;-68
2022/06/07 02:54:33;;;;;;;26.25;5.97;;;;;;;;;;5074000;28;20059;-68
2022/06/07 02:57:01;;;;;;;19.13;5.20;;;;;;;;;;5076019;28;20068;-68
2022/06/07 02:59:28;;;;;;;19.73;5.57;;;;;;;;;;5075536;28;20106;-68
2022/06/07 03:01:55;;;;;;;15.88;4.65;;;;;;;;;;5075439;28;20048;-68
2022/06/07 03:04:24;;;;;;;21.65;5.53;;;;;;;;;;5076531;28;20069;-68
2022/06/07 03:06:51;;;;;;;21.05;5.05;;;;;;;;;;5074393;28;20614;-68
2022/06/07 03:09:18;;;;;;;20.67;5.22;;;;;;;;;;5074002;28;20101;-68
2022/06/07 03:11:45;;;;;;;13.68;4.50;;;;;;;;;;5075690;28;20060;-68
2022/06/07 03:14:12;;;;;;;23.33;5.55;;;;;;;;;;5073112;28;20056;-68
2022/06/07 03:16:39;;;;;;;22.80;6.28;;;;;;;;;;5073936;28;20056;-68
2022/06/07 03:19:07;;;;;;;20.17;5.47;;;;;;;;;;5067650;28;20044;-68
2022/06/07 03:21:37;;;;;;;20.77;5.82;;;;;;;;;;5070171;28;20052;-68
2022/06/07 03:24:04;;;;;;;17.70;5.40;;;;;;;;;;5080207;28;20048;-68
2022/06/07 03:26:31;;;;;;;25.88;5.93;;;;;;;;;;5068950;28;20058;-68
2022/06/07 03:28:59;;;;;;;23.88;6.38;;;;;;;;;;5073022;28;20044;-68
2022/06/07 03:31:26;;;;;;;23.08;5.57;;;;;;;;;;5074566;28;20381;-68
2022/06/07 03:33:54;;;;;;;19.42;5.70;;;;;;;;;;5067616;28;20061;-68
2022/06/07 03:36:22;;;;;;;23.75;5.70;;;;;;;;;;5075888;28;20533;-68
2022/06/07 03:38:51;;;;;;;21.77;6.10;;;;;;;;;;5082447;28;20040;-68
2022/06/07 03:41:20;;;;;;;25.60;7.28;;;;;;;;;;5074106;28;20047;-68
2022/06/07 03:43:48;;;;;;;26.80;6.85;;;;;;;;;;5080563;28;20797;-68
2022/06/07 03:46:16;;;;;;;34.45;8.70;;;;;;;;;;5080223;28;20055;-69
2022/06/07 03:48:43;;;;;;;30.10;8.23;;;;;;;;;;5079546;28;20502;-68
2022/06/07 03:51:11;;;;;;;33.28;8.18;;;;;;;;;;5082537;28;20185;-68
2022/06/07 03:53:38;;;;;;;30.42;8.02;;;;;;;;;;5079012;28;20052;-68
2022/06/07 03:56:08;;;;;;;29.58;7.88;;;;;;;;;;5074356;28;20055;-69
2022/06/07 03:58:37;;;;;;;26.00;7.85;;;;;;;;;;5079303;28;20060;-69
2022/06/07 04:01:04;;;;;;;26.48;6.20;;;;;;;;;;5081160;28;20079;-69
2022/06/07 04:03:32;;;;;;;25.77;6.82;;;;;;;;;;5080862;28;20056;-69
2022/06/07 04:05:59;;;;;;;20.17;5.93;;;;;;;;;;5073900;28;20048;-69
2022/06/07 04:08:26;;;;;;;22.38;5.47;;;;;;;;;;5076051;28;20045;-69
2022/06/07 04:10:55;;;;;;;18.02;6.03;;;;;;;;;;5074851;28;20044;-69
2022/06/07 04:13:25;;;;;;;20.40;5.55;;;;;;;;;;5078122;28;20047;-68
2022/06/07 04:15:52;;;;;;;21.25;6.18;;;;;;;;;;5074944;28;20141;-68
2022/06/07 04:18:19;;;;;;;27.20;6.22;;;;;;;;;;5082258;28;20433;-68
2022/06/07 04:20:47;;;;;;;20.52;5.25;;;;;;;;;;5072870;28;20040;-68
2022/06/07 04:23:15;;;;;;;14.10;3.92;;;;;;;;;;5078996;28;20052;-68
2022/06/07 04:25:43;;;;;;;12.25;3.90;;;;;;;;;;5081849;28;20090;-68
2022/06/07 04:28:10;;;;;;;11.35;3.22;;;;;;;;;;5076595;28;20529;-68
2022/06/07 04:30:39;;;;;;;7.63;2.38;;;;;;;;;;5080475;28;20048;-68
2022/06/07 04:33:06;;;;;;;10.70;3.20;;;;;;;;;;5079402;28;20059;-68
2022/06/07 04:35:33;;;;;;;10.63;2.22;;;;;;;;;;5082083;28;20060;-68
2022/06/07 04:38:00;;;;;;;8.95;1.88;;;;;;;;;;5076134;28;20048;-68
2022/06/07 04:40:27;;;;;;;15.00;2.15;;;;;;;;;;5072649;28;20063;-68
2022/06/07 04:42:55;;;;;;;15.57;2.40;;;;;;;;;;5079657;28;20440;-68
2022/06/07 04:45:22;;;;;;;14.50;2.63;;;;;;;;;;5074924;28;20052;-68
2022/06/07 04:47:51;;;;;;;12.02;2.10;;;;;;;;;;5075697;28;20510;-68
2022/06/07 04:50:19;;;;;;;11.20;2.50;;;;;;;;;;5074700;28;20051;-69
2022/06/07 04:52:46;;;;;;;12.77;2.45;;;;;;;;;;5075848;28;20048;-69
2022/06/07 04:55:14;;;;;;;16.42;2.20;;;;;;;;;;5078315;28;20055;-69
2022/06/07 04:57:41;;;;;;;17.80;2.22;;;;;;;;;;5079001;28;20147;-68
2022/06/07 05:00:13;;;;;;;14.60;2.28;;;;;;;;;;5073587;28;20055;-69
2022/06/07 05:02:41;;;;;;;15.15;2.35;;;;;;;;;;5076953;28;20391;-69
2022/06/07 05:05:10;;;;;;;19.55;2.78;;;;;;;;;;5076328;28;20102;-69
2022/06/07 05:07:38;;;;;;;18.48;2.53;;;;;;;;;;5081202;28;20048;-69
2022/06/07 05:10:06;;;;;;;23.40;3.17;;;;;;;;;;5074113;28;20101;-69
2022/06/07 05:12:33;;;;;;;19.90;3.05;;;;;;;;;;5072793;28;20457;-69
2022/06/07 05:15:01;;;;;;;25.58;3.45;;;;;;;;;;5073790;28;20079;-69
2022/06/07 05:17:28;;;;;;;26.50;3.22;;;;;;;;;;5070313;28;20059;-69
2022/06/07 05:19:55;;;;;;;17.35;3.70;;;;;;;;;;5074249;28;20487;-69
2022/06/07 05:22:24;;;;;;;18.98;2.72;;;;;;;;;;5074809;28;20052;-69
2022/06/07 05:24:52;;;;;;;23.67;3.10;;;;;;;;;;5073793;28;20063;-69
2022/06/07 05:27:21;;;;;;;35.35;4.93;;;;;;;;;;5072467;28;20060;-69
2022/06/07 05:29:50;;;;;;;14.13;3.25;;;;;;;;;;5076826;28;20051;-69
2022/06/07 05:32:18;;;;;;;21.90;3.30;;;;;;;;;;5075682;28;20086;-69
2022/06/07 05:34:45;;;;;;;19.30;2.97;;;;;;;;;;5079309;28;20051;-69
2022/06/07 05:37:14;;;;;;;21.20;3.83;;;;;;;;;;5078003;28;20091;-69
2022/06/07 05:39:43;;;;;;;18.20;2.55;;;;;;;;;;5076804;28;20495;-69
2022/06/07 05:42:10;;;;;;;19.73;2.47;;;;;;;;;;5074579;28;20055;-69
2022/06/07 05:44:38;;;;;;;23.90;3.47;;;;;;;;;;5074322;28;20044;-69
2022/06/07 05:47:05;;;;;;;11.50;2.28;;;;;;;;;;5071247;28;20514;-69
2022/06/07 05:49:33;;;;;;;18.73;2.80;;;;;;;;;;5070540;28;20110;-69
2022/06/07 05:52:01;;;;;;;20.70;3.25;;;;;;;;;;5069316;28;20117;-69
2022/06/07 05:54:29;;;;;;;23.13;3.15;;;;;;;;;;5072037;28;20788;-69
2022/06/07 05:56:57;;;;;;;20.88;2.67;;;;;;;;;;5070724;28;20056;-68
2022/06/07 05:59:24;;;;;;;15.85;2.03;;;;;;;;;;5073019;28;20070;-68
2022/06/07 06:01:52;;;;;;;17.50;2.00;;;;;;;;;;5080409;28;20113;-68
2022/06/07 06:04:20;;;;;;;12.95;2.30;;;;;;;;;;5070088;28;20044;-69
2022/06/07 06:06:47;;;;;;;18.15;2.60;;;;;;;;;;5072411;28;20052;-69
2022/06/07 06:12:00;;;;;;;24.75;2.92;;;;;;;;;;5073524;28;20118;-69
2022/06/07 06:14:28;;;;;;;23.33;3.60;;;;;;;;;;5076291;28;20420;-69
2022/06/07 06:16:55;;;;;;;18.80;2.97;;;;;;;;;;5073232;28;20048;-69
2022/06/07 06:19:23;;;;;;;17.17;2.67;;;;;;;;;;5076601;28;20060;-69
2022/06/07 06:21:50;;;;;;;16.45;2.72;;;;;;;;;;5079940;28;20094;-69
2022/06/07 06:24:20;;;;;;;13.90;1.85;;;;;;;;;;5078409;28;20055;-69
2022/06/07 06:26:47;;;;;;;11.73;2.55;;;;;;;;;;5079813;28;20110;-69
2022/06/07 06:29:16;;;;;;;12.77;2.20;;;;;;;;;;5067550;28;20064;-69
2022/06/07 06:31:46;;;;;;;16.33;2.50;;;;;;;;;;5069910;28;20052;-69
2022/06/07 06:34:13;;;;;;;15.98;2.83;;;;;;;;;;5067901;28;20044;-69
2022/06/07 06:36:40;;;;;;;20.00;2.88;;;;;;;;;;5077450;28;20048;-69
2022/06/07 06:39:08;;;;;;;14.65;2.10;;;;;;;;;;5072256;28;20052;-69
2022/06/07 06:41:35;;;;;;;15.63;2.45;;;;;;;;;;5067236;28;20052;-69
2022/06/07 06:44:03;;;;;;;15.23;2.65;;;;;;;;;;5067475;28;21284;-69
2022/06/07 06:46:32;;;;;;;16.30;2.28;;;;;;;;;;5071711;28;20052;-69
2022/06/07 06:49:00;;;;;;;12.82;1.95;;;;;;;;;;5070396;28;20045;-69
2022/06/07 06:51:28;;;;;;;10.68;2.05;;;;;;;;;;5072251;28;20067;-69
2022/06/07 06:53:57;;;;;;;12.98;2.00;;;;;;;;;;5076404;28;20044;-69
2022/06/07 06:56:24;;;;;;;16.55;2.33;;;;;;;;;;5071594;28;20458;-69
2022/06/07 06:58:52;;;;;;;13.00;1.98;;;;;;;;;;5074208;28;20090;-69
2022/06/07 07:01:22;;;;;;;14.75;1.92;;;;;;;;;;5077351;28;20106;-69
2022/06/07 07:03:51;;;;;;;13.02;1.92;;;;;;;;;;5078039;28;20052;-69
2022/06/07 07:06:18;;;;;;;9.82;1.33;;;;;;;;;;5076418;28;20079;-69
2022/06/07 07:08:46;;;;;;;10.70;1.63;;;;;;;;;;5074077;28;20417;-69
2022/06/07 07:11:15;;;;;;;9.43;1.95;;;;;;;;;;5075263;28;20063;-69
2022/06/07 07:13:42;;;;;;;13.55;2.15;;;;;;;;;;5082561;28;20065;-69
2022/06/07 07:16:10;;;;;;;16.33;2.10;;;;;;;;;;5080685;28;20101;-69
2022/06/07 07:18:38;;;;;;;9.65;1.70;;;;;;;;;;5075718;28;20052;-69
2022/06/07 07:21:08;;;;;;;11.88;2.03;;;;;;;;;;5072911;28;20040;-69
2022/06/07 07:23:36;;;;;;;17.27;2.53;;;;;;;;;;5073612;28;20101;-69
2022/06/07 07:26:06;;;;;;;13.23;2.30;;;;;;;;;;5072226;28;20078;-69
2022/06/07 07:28:33;;;;;;;15.00;1.95;;;;;;;;;;5072317;28;20110;-69
2022/06/07 07:31:01;;;;;;;13.07;2.30;;;;;;;;;;5073757;28;20045;-69
2022/06/07 07:33:28;;;;;;;24.15;3.40;;;;;;;;;;5072164;28;20052;-69
2022/06/07 07:35:56;;;;;;;13.23;2.15;;;;;;;;;;5073525;28;20065;-69
2022/06/07 07:38:25;;;;;;;13.82;1.67;;;;;;;;;;5074737;28;20076;-69
2022/06/07 07:40:52;;;;;;;14.45;2.20;;;;;;;;;;5073736;28;20514;-69
2022/06/07 07:43:20;;;;;;;19.48;2.17;;;;;;;;;;5073723;28;20607;-69
2022/06/07 07:45:47;;;;;;;17.70;2.58;;;;;;;;;;5075041;28;20044;-69
2022/06/07 07:48:16;;;;;;;17.45;2.40;;;;;;;;;;5071737;28;20055;-69
2022/06/07 07:50:43;;;;;;;14.40;2.13;;;;;;;;;;5072508;28;20131;-69
2022/06/07 07:53:10;;;;;;;24.67;2.92;;;;;;;;;;5074813;28;20077;-69
2022/06/07 07:55:44;;;;;;;12.52;2.33;;;;;;;;;;5073544;28;20059;-69
2022/06/07 07:58:12;;;;;;;17.75;2.67;;;;;;;;;;5068593;28;20053;-69
2022/06/07 08:00:42;;;;;;;19.35;2.58;;;;;;;;;;5068925;28;20044;-69
2022/06/07 08:03:09;;;;;;;15.70;2.13;;;;;;;;;;5071378;28;20059;-69
2022/06/07 08:05:36;;;;;;;18.35;2.35;;;;;;;;;;5071048;28;20568;-69
2022/06/07 08:08:03;;;;;;;18.02;2.65;;;;;;;;;;5070871;28;20056;-70
2022/06/07 08:10:31;;;;;;;19.33;2.58;;;;;;;;;;5071187;28;20052;-70
2022/06/07 08:13:00;;;;;;;13.82;2.45;;;;;;;;;;5072469;28;20052;-70
2022/06/07 08:15:29;;;;;;;16.95;2.78;;;;;;;;;;5070484;28;20084;-69
2022/06/07 08:17:57;;;;;;;17.67;2.72;;;;;;;;;;5074457;28;20062;-69
2022/06/07 08:20:25;;;;;;;19.83;3.10;;;;;;;;;;5083900;28;21345;-69
2022/06/07 08:22:52;;;;;;;15.90;2.80;;;;;;;;;;5082101;28;20126;-69
2022/06/07 08:25:20;;;;;;;14.90;2.22;;;;;;;;;;5076690;28;20577;-69
2022/06/07 08:27:47;;;;;;;13.27;1.85;;;;;;;;;;5073034;28;20048;-69
2022/06/07 08:30:16;;;;;;;18.52;2.45;;;;;;;;;;5076236;28;20101;-69
2022/06/07 08:32:43;;;;;;;9.68;1.67;;;;;;;;;;5077629;28;20048;-69
2022/06/07 08:37:59;;;;;;;17.45;2.45;;;;;;;;;;5028841;28;20055;-69
2022/06/07 08:40:31;;;;;;;11.40;2.58;;;;;;;;;;5068818;28;20045;-69
2022/06/07 08:43:00;;;;;;;13.07;1.95;;;;;;;;;;5076663;28;22403;-69
2022/06/07 08:45:30;;;;;;;14.40;1.70;;;;;;;;;;5074113;28;20064;-69
2022/06/07 08:48:00;;;;;;;8.43;1.10;;;;;;;;;;5075561;28;20157;-69
2022/06/07 08:50:28;;;;;;;8.15;1.30;;;;;;;;;;5074704;28;20055;-69
2022/06/07 08:52:57;;;;;;;8.45;1.73;;;;;;;;;;5077378;28;20071;-69
2022/06/07 08:55:27;;;;;;;11.93;1.85;;;;;;;;;;5080519;28;20044;-69
2022/06/07 08:57:56;;;;;;;8.70;1.83;;;;;;;;;;5077491;28;20052;-69
2022/06/07 09:00:24;;;;;;;14.05;1.83;;;;;;;;;;5077238;28;20399;-69
2022/06/07 09:03:12;;;;;;;16.67;2.50;;;;;;;;;;5073539;28;20126;-69
2022/06/07 09:05:41;;;;;;;21.50;2.63;;;;;;;;;;5076868;28;20066;-69
2022/06/07 09:08:09;;;;;;;12.60;2.28;;;;;;;;;;5078532;28;20494;-69
2022/06/07 09:13:23;;;;;;;12.35;3.38;;;;;;;;;;5078543;28;20174;-69
2022/06/07 09:15:52;;;;;;;15.23;2.83;;;;;;;;;;5072312;28;20055;-69
2022/06/07 09:18:20;;;;;;;9.48;1.85;;;;;;;;;;5070110;28;20741;-69
2022/06/07 09:20:50;;;;;;;19.90;3.20;;;;;;;;;;5070076;28;20094;-69
2022/06/07 09:23:19;;;;;;;14.60;2.22;;;;;;;;;;5071593;28;20056;-70
2022/06/07 09:25:48;;;;;;;14.80;2.25;;;;;;;;;;5071570;28;20499;-69
2022/06/07 09:28:18;;;;;;;16.33;2.63;;;;;;;;;;5068808;28;20499;-69
2022/06/07 09:30:46;;;;;;;8.98;1.88;;;;;;;;;;5076207;28;20075;-69
2022/06/07 09:33:21;;;;;;;19.42;2.85;;;;;;;;;;5070359;28;20044;-70
2022/06/07 09:35:52;;;;;;;20.30;2.92;;;;;;;;;;5071402;28;20048;-70
2022/06/07 09:38:24;;;;;;;16.80;3.53;;;;;;;;;;5071277;28;20047;-70
2022/06/07 09:40:56;;;;;;;20.13;2.55;;;;;;;;;;5083084;28;20048;-70
2022/06/07 09:43:26;;;;;;;15.77;2.47;;;;;;;;;;5067836;28;20499;-69
2022/06/07 09:45:55;;;;;;;14.07;2.50;;;;;;;;;;5073601;28;20739;-69
2022/06/07 09:48:27;;;;;;;10.70;2.30;;;;;;;;;;5079399;28;20047;-69
2022/06/07 09:51:00;;;;;;;17.52;2.72;;;;;;;;;;5079511;28;20558;-70
2022/06/07 09:53:27;;;;;;;;;;;;;;;;;;5080370;28;20090;-70
2022/06/07 09:56:01;;;;;;;10.95;1.77;;;;;;;;;;5073802;28;19932;-70
2022/06/07 09:58:28;;;;;;;;;;;;;;;;;;5076059;28;20067;-70
2022/06/07 10:00:58;;;;;;;10.48;1.70;;;;;;;;;;5076405;28;20006;-69
2022/06/07 10:03:32;;;;;;;13.25;1.60;;;;;;;;;;5070702;28;20131;-69
2022/06/07 10:06:08;;;;;;;13.98;2.28;;;;;;;;;;5072053;28;20054;-69
2022/06/07 10:08:46;;;;;;;9.88;1.50;;;;;;;;;;5072414;28;20052;-70
2022/06/07 10:11:19;;;;;;;15.15;2.42;;;;;;;;;;5075245;28;20040;-70
2022/06/07 10:13:50;;;;;;;11.88;2.53;;;;;;;;;;5068040;28;20059;-70
2022/06/07 10:16:21;;;;;;;13.07;2.53;;;;;;;;;;5071613;28;20052;-70
2022/06/07 10:18:51;;;;;;;12.82;2.70;;;;;;;;;;5074312;28;20044;-70
2022/06/07 10:21:31;;;;;;;11.77;1.85;;;;;;;;;;5073631;28;20052;-70
2022/06/07 10:24:08;;;;;;;10.73;2.20;;;;;;;;;;5072416;28;20063;-70
2022/06/07 10:26:39;;;;;;;10.02;1.60;;;;;;;;;;5076736;28;20060;-70
2022/06/07 10:29:16;;;;;;;10.55;1.88;;;;;;;;;;5075260;28;20105;-70
2022/06/07 10:31:46;;;;;;;8.68;1.40;;;;;;;;;;5070943;28;20139;-70
2022/06/07 10:34:19;;;;;;;11.13;1.70;;;;;;;;;;5079597;28;20383;-70
2022/06/07 10:36:52;;;;;;;8.77;1.80;;;;;;;;;;5070484;28;20055;-70
2022/06/07 10:39:27;;;;;;;11.25;1.83;;;;;;;;;;5069040;28;20172;-70
2022/06/07 10:41:57;;;;;;;6.68;1.45;;;;;;;;;;5078020;28;20044;-70
2022/06/07 10:44:29;;;;;;;7.78;1.52;;;;;;;;;;5078566;28;20048;-70
2022/06/07 10:46:56;;;;;;;12.30;1.92;;;;;;;;;;5076782;28;20052;-70
2022/06/07 10:49:26;;;;;;;12.70;2.00;;;;;;;;;;5077633;28;20044;-70
2022/06/07 10:54:45;;;;;;;9.88;1.67;;;;;;;;;;5076451;28;20060;-70
2022/06/07 10:57:18;;;;;;;6.72;1.45;;;;;;;;;;5079716;28;20557;-70
2022/06/07 10:59:45;;;;;;;5.25;1.10;;;;;;;;;;5077380;28;20143;-70
2022/06/07 11:02:20;;;;;;;9.35;1.10;;;;;;;;;;5079089;28;20117;-70
2022/06/07 11:10:25;;;;;;;8.68;1.05;;;;;;;;;;5083111;28;20052;-70
2022/06/07 11:12:55;;;;;;;6.85;1.20;;;;;;;;;;5078539;28;20048;-70
2022/06/07 11:15:25;;;;;;;6.47;0.85;;;;;;;;;;5075440;28;20040;-70
2022/06/07 11:17:57;;;;;;;3.97;1.20;;;;;;;;;;5077688;28;20064;-70
2022/06/07 11:20:25;;;;;;;6.45;1.00;;;;;;;;;;5079202;28;20790;-70
2022/06/07 11:22:58;;;;;;;12.35;1.63;;;;;;;;;;5076797;28;20051;-70
2022/06/07 11:25:25;;;;;;;;;;;;;;;;;;5078341;28;20063;-70
2022/06/07 11:27:54;;;;;;;13.52;1.38;;;;;;;;;;5082885;28;19920;-70
2022/06/07 11:30:23;;;;;;;8.57;1.50;;;;;;;;;;5079843;28;20569;-70
2022/06/07 11:32:53;;;;;;;8.48;1.65;;;;;;;;;;5073050;28;20044;-70
2022/06/07 11:35:39;;;;;;;5.07;1.45;;;;;;;;;;5083121;28;20062;-70
2022/06/07 11:38:16;;;;;;;9.00;1.25;;;;;;;;;;5072709;28;20059;-70
2022/06/07 11:40:43;;;;;;;4.05;1.10;;;;;;;;;;5077804;28;20403;-70
2022/06/07 11:43:25;;;;;;;5.13;0.90;;;;;;;;;;5081753;28;20058;-70
2022/06/07 11:45:53;;;;;;;5.45;1.20;;;;;;;;;;5073350;28;20517;-70
2022/06/07 11:48:24;;;;;;;7.57;1.40;;;;;;;;;;5080223;28;20048;-70
2022/06/07 11:50:56;;;;;;;9.43;1.95;;;;;;;;;;5079489;28;20112;-70
2022/06/07 11:53:27;;;;;;;3.65;0.82;;;;;;;;;;5076872;28;20048;-70
2022/06/07 11:55:58;;;;;;;5.82;1.23;;;;;;;;;;5074122;28;20139;-70
2022/06/07 11:58:44;;;;;;;5.60;0.95;;;;;;;;;;5074607;28;20097;-70
2022/06/07 12:01:24;;;;;;;5.53;1.20;;;;;;;;;;5079906;28;20048;-70
2022/06/07 12:04:06;;;;;;;9.63;1.30;;;;;;;;;;5073858;28;20503;-70
2022/06/07 12:06:34;;;;;;;3.85;0.90;;;;;;;;;;5074989;28;20524;-70
2022/06/07 12:09:06;;;;;;;3.20;0.82;;;;;;;;;;5081076;28;20087;-70
2022/06/07 12:11:34;;;;;;;7.95;1.45;;;;;;;;;;5079732;28;20040;-70
2022/06/07 12:14:23;;;;;;;7.55;1.70;;;;;;;;;;5078235;28;20048;-70
2022/06/07 12:16:55;;;;;;;8.18;1.25;;;;;;;;;;5075333;28;20105;-70
2022/06/07 12:19:24;;;;;;;10.02;1.40;;;;;;;;;;5072846;28;20051;-70
2022/06/07 12:21:54;;;;;;;6.15;1.20;;;;;;;;;;5075047;28;20052;-70
2022/06/07 12:24:23;;;;;;;7.68;1.40;;;;;;;;;;5076199;28;20105;-70
2022/06/07 12:26:50;;;;;;;5.10;1.08;;;;;;;;;;5073806;28;20045;-70
2022/06/07 12:29:22;;;;;;;6.30;0.90;;;;;;;;;;5072501;28;20056;-70
2022/06/07 12:31:50;;;;;;;7.43;1.30;;;;;;;;;;5077974;28;20487;-70
2022/06/07 12:34:19;;;;;;;5.47;1.70;;;;;;;;;;5079578;28;20054;-70
2022/06/07 12:36:51;;;;;;;7.80;1.10;;;;;;;;;;5075268;28;20049;-70
2022/06/07 12:39:19;;;;;;;6.82;1.25;;;;;;;;;;5075249;28;20099;-70
2022/06/07 12:41:50;;;;;;;6.43;1.38;;;;;;;;;;5073620;28;20055;-70
2022/06/07 12:44:21;;;;;;;7.57;1.45;;;;;;;;;;5072460;28;20056;-70
2022/06/07 12:46:48;;;;;;;4.78;0.90;;;;;;;;;;5072469;28;20101;-70
2022/06/07 12:49:20;;;;;;;7.35;1.60;;;;;;;;;;5070788;28;21097;-70
2022/06/07 12:51:55;;;;;;;8.82;1.65;;;;;;;;;;5074859;28;20045;-70
2022/06/07 12:54:23;;;;;;;7.38;1.58;;;;;;;;;;5075729;28;20516;-70
2022/06/07 12:56:52;;;;;;;6.68;1.15;;;;;;;;;;5071433;28;20052;-70
2022/06/07 12:59:23;;;;;;;7.22;1.58;;;;;;;;;;5071867;28;20579;-70
2022/06/07 13:01:51;;;;;;;8.50;1.30;;;;;;;;;;5069468;28;20045;-70
2022/06/07 13:04:22;;;;;;;7.45;1.10;;;;;;;;;;5077651;28;20067;-70
2022/06/07 13:07:00;;;;;;;4.90;1.00;;;;;;;;;;5071330;28;20495;-70
2022/06/07 13:09:27;;;;;;;7.68;1.30;;;;;;;;;;5072799;28;20071;-70
2022/06/07 13:11:56;;;;;;;7.00;1.10;;;;;;;;;;5074192;28;20537;-70
2022/06/07 13:14:26;;;;;;;6.15;0.95;;;;;;;;;;5073235;28;20076;-70
2022/06/07 13:16:54;;;;;;;6.82;1.13;;;;;;;;;;5077345;28;20049;-70
2022/06/07 13:19:26;;;;;;;6.03;1.17;;;;;;;;;;5068215;28;20056;-70
2022/06/07 13:21:56;;;;;;;8.85;1.25;;;;;;;;;;5071552;28;20047;-70
2022/06/07 13:24:25;;;;;;;4.97;1.02;;;;;;;;;;5082479;28;20044;-70
2022/06/07 13:26:57;;;;;;;6.53;1.35;;;;;;;;;;5077330;28;20072;-70
2022/06/07 13:29:27;;;;;;;4.65;1.10;;;;;;;;;;5083665;28;20063;-70
2022/06/07 13:31:56;;;;;;;5.22;1.23;;;;;;;;;;5074029;28;20048;-70
2022/06/07 13:34:24;;;;;;;4.70;1.23;;;;;;;;;;5077532;28;20052;-70
2022/06/07 13:37:05;;;;;;;6.97;1.27;;;;;;;;;;5072092;28;20414;-70
2022/06/07 13:39:32;;;;;;;6.38;1.00;;;;;;;;;;5074305;28;20106;-70
2022/06/07 13:42:05;;;;;;;4.40;1.30;;;;;;;;;;5073441;28;20400;-70
2022/06/07 13:44:40;;;;;;;5.43;1.17;;;;;;;;;;5067705;28;20161;-70
2022/06/07 13:47:20;;;;;;;7.10;1.42;;;;;;;;;;5071416;28;20310;-70
2022/06/07 13:55:46;;;;;;;5.45;1.30;;;;;;;;;;5078944;28;20571;-70
2022/06/07 13:58:14;;;;;;;5.68;1.17;;;;;;;;;;5073500;28;20487;-70
2022/06/07 14:00:42;;;;;;;5.47;1.10;;;;;;;;;;5076938;28;20406;-70
2022/06/07 14:03:26;;;;;;;3.40;0.70;;;;;;;;;;5083218;28;20055;-70
2022/06/07 14:05:53;;;;;;;5.78;1.27;;;;;;;;;;5084204;28;20898;-70
2022/06/07 14:08:21;;;;;;;7.18;1.20;;;;;;;;;;5075528;28;20098;-70
2022/06/07 14:10:49;;;;;;;5.43;1.33;;;;;;;;;;5070138;28;20047;-70
2022/06/07 14:13:17;;;;;;;11.48;1.48;;;;;;;;;;5077872;28;20074;-70
2022/06/07 14:15:47;;;;;;;6.97;1.48;;;;;;;;;;5069429;28;20053;-70
2022/06/07 14:18:15;;;;;;;7.75;1.55;;;;;;;;;;5069848;28;20576;-70
2022/06/07 14:20:42;;;;;;;7.13;1.40;;;;;;;;;;5068606;28;20060;-70
2022/06/07 14:23:11;;;;;;;3.97;1.40;;;;;;;;;;5071211;28;20094;-70
2022/06/07 14:25:39;;;;;;;9.40;1.60;;;;;;;;;;5071265;28;20048;-70
2022/06/07 14:28:07;;;;;;;5.38;1.50;;;;;;;;;;5076712;28;20500;-70
2022/06/07 14:30:35;;;;;;;6.43;1.50;;;;;;;;;;5071672;28;20133;-70
2022/06/07 14:33:05;;;;;;;7.03;1.40;;;;;;;;;;5067786;28;20137;-70
2022/06/07 14:35:34;;;;;;;6.00;1.20;;;;;;;;;;5073964;28;20048;-69
2022/06/07 14:38:02;;;;;;;5.60;1.60;;;;;;;;;;5068489;28;20448;-69
2022/06/07 14:40:31;;;;;;;6.65;1.48;;;;;;;;;;5080632;28;20105;-70
2022/06/07 14:42:58;;;;;;;5.50;1.73;;;;;;;;;;5076824;28;20059;-70
2022/06/07 14:45:27;;;;;;;5.90;1.60;;;;;;;;;;5067290;28;20041;-69
2022/06/07 14:47:58;;;;;;;7.78;1.45;;;;;;;;;;5074265;28;20048;-69
2022/06/07 14:50:27;;;;;;;8.73;1.77;;;;;;;;;;5074614;28;20052;-70
2022/06/07 14:52:55;;;;;;;6.68;1.65;;;;;;;;;;5071810;28;20048;-70
2022/06/07 14:55:23;;;;;;;8.93;1.45;;;;;;;;;;5071669;28;20048;-69
2022/06/07 14:57:51;;;;;;;8.88;1.98;;;;;;;;;;5070651;28;20486;-69
2022/06/07 15:00:19;;;;;;;8.63;2.13;;;;;;;;;;5073373;28;20056;-69
2022/06/07 15:02:47;;;;;;;8.80;1.52;;;;;;;;;;5076823;28;20908;-69
2022/06/07 15:05:17;;;;;;;8.68;1.58;;;;;;;;;;5074593;28;20044;-69
2022/06/07 15:07:48;;;;;;;11.77;2.50;;;;;;;;;;5074819;28;20056;-69
2022/06/07 15:10:16;;;;;;;8.50;2.00;;;;;;;;;;5070235;28;20044;-69
2022/06/07 15:12:43;;;;;;;10.93;2.10;;;;;;;;;;5079015;28;20051;-69
2022/06/07 15:15:11;;;;;;;11.85;2.22;;;;;;;;;;5074925;28;20081;-69